createdAt,value
2022-10-16T00:00:42.234Z,34.32
2022-10-16T00:01:42.130Z,34.16
2022-10-16T00:02:42.226Z,33.35
2022-10-16T00:03:42.033Z,34.16
2022-10-16T00:04:42.023Z,34.32
2022-10-16T00:05:42.006Z,34.32
2022-10-16T00:06:42.078Z,34.48
2022-10-16T00:07:41.984Z,34.32
2022-10-16T00:08:42.128Z,34.32
2022-10-16T00:09:41.974Z,34.64
2022-10-16T00:10:41.932Z,34.32
2022-10-16T00:11:41.943Z,34.48
2022-10-16T00:12:42.127Z,34.48
2022-10-16T00:13:41.889Z,34.32
2022-10-16T00:14:41.907Z,34.32
2022-10-16T00:15:41.861Z,34.32
2022-10-16T00:16:41.845Z,34.16
2022-10-16T00:17:41.837Z,34.16
2022-10-16T00:18:41.974Z,34.32
2022-10-16T00:19:41.882Z,34.48
2022-10-16T00:20:41.858Z,34.32
2022-10-16T00:21:41.805Z,34.32
2022-10-16T00:22:41.753Z,34.48
2022-10-16T00:23:41.762Z,35.93
2022-10-16T00:24:41.802Z,34.00
2022-10-16T00:25:41.878Z,34.32
2022-10-16T00:26:41.738Z,34.32
2022-10-16T00:27:41.702Z,34.48
2022-10-16T00:28:41.808Z,34.32
2022-10-16T00:29:41.659Z,34.32
2022-10-16T00:30:41.654Z,34.64
2022-10-16T00:31:41.795Z,34.32
2022-10-16T00:32:41.664Z,34.64
2022-10-16T00:33:41.606Z,34.48
2022-10-16T00:34:41.580Z,34.64
2022-10-16T00:35:42.125Z,34.32
2022-10-16T00:36:41.559Z,34.48
2022-10-16T00:37:41.680Z,34.48
2022-10-16T00:38:41.570Z,34.48
2022-10-16T00:39:41.520Z,34.48
2022-10-16T00:40:41.752Z,34.32
2022-10-16T00:41:41.515Z,34.32
2022-10-16T00:42:41.480Z,34.48
2022-10-16T00:43:41.608Z,34.00
2022-10-16T00:44:41.483Z,34.00
2022-10-16T00:45:41.496Z,34.48
2022-10-16T00:46:41.418Z,34.64
2022-10-16T00:47:41.426Z,34.32
2022-10-16T00:48:41.395Z,34.32
2022-10-16T00:49:41.472Z,34.32
2022-10-16T00:50:41.432Z,34.00
2022-10-16T00:51:41.356Z,34.00
2022-10-16T00:52:41.338Z,34.32
2022-10-16T00:53:41.340Z,34.48
2022-10-16T00:54:41.302Z,34.64
2022-10-16T00:55:42.563Z,34.64
2022-10-16T00:56:41.310Z,34.64
2022-10-16T00:57:41.264Z,34.48
2022-10-16T00:58:41.280Z,34.64
2022-10-16T00:59:41.263Z,34.32
2022-10-16T01:00:41.224Z,34.32
2022-10-16T01:01:41.354Z,34.48
2022-10-16T01:02:41.253Z,34.48
2022-10-16T01:03:41.188Z,35.61
2022-10-16T01:04:41.178Z,34.32
2022-10-16T01:05:41.159Z,34.64
2022-10-16T01:06:41.150Z,34.32
2022-10-16T01:07:41.271Z,34.32
2022-10-16T01:08:41.148Z,34.32
2022-10-16T01:09:41.097Z,34.48
2022-10-16T01:10:41.074Z,34.32
2022-10-16T01:11:41.079Z,34.16
2022-10-16T01:12:43.111Z,34.32
2022-10-16T01:13:41.191Z,34.32
2022-10-16T01:14:41.200Z,34.32
2022-10-16T01:15:41.034Z,34.00
2022-10-16T01:16:41.004Z,34.48
2022-10-16T01:17:40.984Z,34.32
2022-10-16T01:18:40.991Z,34.64
2022-10-16T01:19:41.125Z,34.64
2022-10-16T01:20:40.973Z,34.64
2022-10-16T01:21:40.940Z,34.32
2022-10-16T01:22:40.924Z,34.48
2022-10-16T01:23:40.912Z,34.48
2022-10-16T01:24:40.976Z,34.48
2022-10-16T01:25:41.010Z,34.16
2022-10-16T01:26:40.875Z,34.48
2022-10-16T01:27:40.863Z,34.32
2022-10-16T01:28:40.866Z,34.64
2022-10-16T01:29:40.820Z,34.32
2022-10-16T01:30:41.840Z,34.80
2022-10-16T01:31:40.903Z,34.32
2022-10-16T01:32:40.809Z,34.32
2022-10-16T01:33:40.778Z,34.32
2022-10-16T01:34:40.751Z,34.32
2022-10-16T01:35:40.748Z,34.32
2022-10-16T01:36:40.718Z,34.64
2022-10-16T01:37:40.861Z,34.48
2022-10-16T01:38:40.755Z,34.48
2022-10-16T01:39:40.678Z,34.32
2022-10-16T01:40:40.676Z,34.16
2022-10-16T01:41:40.645Z,36.74
2022-10-16T01:42:40.642Z,34.48
2022-10-16T01:43:40.842Z,34.48
2022-10-16T01:44:40.627Z,34.64
2022-10-16T01:45:40.601Z,34.32
2022-10-16T01:46:40.576Z,34.48
2022-10-16T01:47:40.569Z,34.48
2022-10-16T01:48:40.567Z,34.16
2022-10-16T01:49:40.696Z,34.48
2022-10-16T01:50:40.554Z,35.93
2022-10-16T01:51:40.503Z,33.84
2022-10-16T01:52:40.490Z,34.64
2022-10-16T01:53:40.496Z,34.64
2022-10-16T01:54:40.464Z,34.48
2022-10-16T01:55:40.609Z,34.32
2022-10-16T01:56:40.471Z,34.80
2022-10-16T01:57:40.426Z,34.32
2022-10-16T01:58:40.409Z,34.64
2022-10-16T01:59:40.393Z,34.32
2022-10-16T02:00:40.383Z,34.16
2022-10-16T02:01:40.493Z,34.48
2022-10-16T02:02:40.376Z,34.32
2022-10-16T02:03:40.338Z,34.48
2022-10-16T02:04:40.344Z,34.64
2022-10-16T02:05:40.309Z,34.80
2022-10-16T02:06:40.312Z,34.80
2022-10-16T02:07:40.425Z,34.80
2022-10-16T02:08:40.330Z,34.97
2022-10-16T02:09:40.247Z,35.61
2022-10-16T02:10:40.246Z,35.45
2022-10-16T02:11:40.232Z,35.29
2022-10-16T02:12:40.217Z,35.45
2022-10-16T02:13:40.407Z,35.29
2022-10-16T02:14:40.207Z,34.80
2022-10-16T02:15:40.184Z,35.45
2022-10-16T02:16:40.283Z,35.45
2022-10-16T02:17:40.137Z,35.45
2022-10-16T02:18:40.127Z,36.74
2022-10-16T02:19:40.330Z,35.29
2022-10-16T02:20:40.332Z,35.45
2022-10-16T02:21:40.075Z,35.93
2022-10-16T02:22:40.085Z,35.13
2022-10-16T02:23:40.049Z,35.13
2022-10-16T02:24:40.037Z,36.42
2022-10-16T02:25:40.380Z,35.13
2022-10-16T02:26:40.041Z,35.29
2022-10-16T02:27:39.995Z,35.45
2022-10-16T02:28:40.119Z,35.29
2022-10-16T02:29:39.968Z,35.45
2022-10-16T02:30:39.962Z,35.77
2022-10-16T02:31:40.033Z,35.29
2022-10-16T02:32:39.978Z,35.45
2022-10-16T02:33:39.942Z,35.45
2022-10-16T02:34:39.903Z,35.29
2022-10-16T02:35:39.919Z,35.13
2022-10-16T02:36:39.863Z,35.29
2022-10-16T02:37:40.006Z,35.13
2022-10-16T02:38:39.871Z,35.45
2022-10-16T02:39:39.826Z,35.45
2022-10-16T02:40:39.833Z,35.45
2022-10-16T02:41:39.789Z,35.29
2022-10-16T02:42:39.786Z,36.25
2022-10-16T02:43:39.860Z,35.13
2022-10-16T02:44:39.806Z,35.29
2022-10-16T02:45:39.999Z,35.29
2022-10-16T02:46:39.753Z,35.29
2022-10-16T02:47:39.719Z,35.45
2022-10-16T02:48:39.703Z,35.13
2022-10-16T02:49:39.890Z,35.13
2022-10-16T02:50:39.810Z,35.13
2022-10-16T02:51:39.673Z,35.45
2022-10-16T02:52:39.647Z,35.13
2022-10-16T02:53:39.628Z,35.45
2022-10-16T02:54:39.642Z,34.97
2022-10-16T02:55:39.937Z,35.61
2022-10-16T02:56:39.617Z,35.13
2022-10-16T02:57:39.567Z,35.77
2022-10-16T02:58:39.742Z,35.13
2022-10-16T02:59:39.538Z,35.29
2022-10-16T03:00:39.664Z,35.45
2022-10-16T03:01:39.687Z,35.45
2022-10-16T03:02:39.981Z,35.29
2022-10-16T03:03:40.085Z,35.13
2022-10-16T03:04:39.493Z,34.97
2022-10-16T03:05:39.461Z,35.45
2022-10-16T03:06:39.447Z,35.61
2022-10-16T03:07:39.590Z,35.45
2022-10-16T03:08:39.477Z,35.29
2022-10-16T03:09:39.406Z,35.45
2022-10-16T03:10:39.421Z,35.29
2022-10-16T03:11:39.371Z,35.29
2022-10-16T03:12:39.471Z,35.45
2022-10-16T03:13:39.947Z,35.13
2022-10-16T03:14:39.577Z,35.45
2022-10-16T03:15:39.318Z,35.29
2022-10-16T03:16:39.487Z,35.45
2022-10-16T03:17:39.290Z,35.45
2022-10-16T03:18:39.288Z,35.13
2022-10-16T03:19:39.437Z,36.90
2022-10-16T03:20:39.271Z,34.97
2022-10-16T03:21:39.225Z,35.61
2022-10-16T03:22:39.227Z,35.45
2022-10-16T03:23:39.337Z,35.77
2022-10-16T03:24:39.277Z,35.29
2022-10-16T03:25:39.264Z,35.29
2022-10-16T03:26:39.637Z,35.77
2022-10-16T03:27:39.155Z,35.45
2022-10-16T03:28:39.221Z,35.45
2022-10-16T03:29:39.151Z,35.29
2022-10-16T03:30:39.124Z,35.45
2022-10-16T03:31:39.246Z,35.13
2022-10-16T03:32:39.157Z,35.29
2022-10-16T03:33:39.104Z,35.29
2022-10-16T03:34:39.095Z,34.80
2022-10-16T03:35:39.066Z,35.29
2022-10-16T03:36:39.203Z,35.45
2022-10-16T03:37:39.144Z,35.29
2022-10-16T03:38:39.090Z,35.29
2022-10-16T03:39:39.053Z,35.61
2022-10-16T03:40:38.972Z,35.61
2022-10-16T03:41:38.962Z,35.29
2022-10-16T03:42:39.061Z,35.29
2022-10-16T03:43:39.130Z,35.13
2022-10-16T03:44:38.995Z,35.93
2022-10-16T03:45:38.980Z,35.45
2022-10-16T03:46:38.925Z,35.29
2022-10-16T03:47:38.861Z,34.97
2022-10-16T03:48:38.903Z,35.45
2022-10-16T03:49:39.034Z,35.13
2022-10-16T03:50:38.972Z,35.29
2022-10-16T03:51:38.815Z,35.45
2022-10-16T03:52:38.957Z,35.45
2022-10-16T03:53:38.780Z,35.45
2022-10-16T03:54:38.784Z,35.45
2022-10-16T03:55:38.754Z,34.64
2022-10-16T03:56:38.940Z,35.93
2022-10-16T03:57:38.792Z,35.45
2022-10-16T03:58:38.715Z,35.13
2022-10-16T03:59:38.691Z,35.61
2022-10-16T04:00:38.803Z,35.45
2022-10-16T04:01:38.672Z,35.61
2022-10-16T04:02:39.048Z,35.29
2022-10-16T04:03:38.643Z,35.13
2022-10-16T04:04:38.682Z,35.29
2022-10-16T04:05:38.610Z,35.45
2022-10-16T04:06:38.747Z,35.93
2022-10-16T04:07:38.584Z,35.45
2022-10-16T04:08:39.071Z,35.13
2022-10-16T04:09:38.554Z,35.13
2022-10-16T04:10:38.569Z,36.42
2022-10-16T04:11:38.523Z,35.77
2022-10-16T04:12:38.521Z,35.45
2022-10-16T04:13:38.522Z,36.09
2022-10-16T04:14:38.671Z,35.45
2022-10-16T04:15:38.466Z,35.45
2022-10-16T04:16:38.477Z,35.29
2022-10-16T04:17:38.445Z,35.29
2022-10-16T04:18:38.429Z,35.61
2022-10-16T04:19:38.409Z,35.93
2022-10-16T04:20:38.591Z,35.61
2022-10-16T04:21:38.380Z,35.45
2022-10-16T04:22:38.379Z,35.13
2022-10-16T04:23:38.357Z,35.45
2022-10-16T04:24:38.345Z,35.45
2022-10-16T04:25:38.331Z,35.29
2022-10-16T04:26:38.918Z,35.77
2022-10-16T04:27:41.056Z,35.29
2022-10-16T04:28:39.301Z,35.45
2022-10-16T04:29:38.270Z,35.61
2022-10-16T04:30:38.580Z,35.77
2022-10-16T04:31:38.265Z,35.61
2022-10-16T04:32:38.683Z,35.93
2022-10-16T04:33:38.207Z,35.13
2022-10-16T04:34:38.203Z,35.45
2022-10-16T04:35:38.175Z,35.93
2022-10-16T04:36:38.180Z,35.45
2022-10-16T04:37:38.171Z,35.77
2022-10-16T04:38:38.345Z,37.22
2022-10-16T04:39:38.133Z,35.13
2022-10-16T04:40:38.258Z,35.93
2022-10-16T04:41:38.103Z,35.77
2022-10-16T04:42:38.114Z,35.45
2022-10-16T04:43:38.084Z,36.42
2022-10-16T04:44:38.268Z,35.45
2022-10-16T04:45:38.051Z,35.29
2022-10-16T04:46:38.031Z,35.45
2022-10-16T04:47:38.022Z,35.29
2022-10-16T04:48:38.001Z,35.61
2022-10-16T04:49:38.011Z,35.13
2022-10-16T04:50:38.353Z,35.61
2022-10-16T04:51:37.961Z,35.13
2022-10-16T04:52:37.958Z,35.45
2022-10-16T04:53:37.934Z,35.29
2022-10-16T04:54:38.631Z,35.77
2022-10-16T04:55:37.904Z,35.93
2022-10-16T04:56:38.116Z,36.74
2022-10-16T04:57:37.905Z,35.61
2022-10-16T04:58:37.948Z,35.29
2022-10-16T04:59:37.849Z,36.09
2022-10-16T05:00:37.841Z,35.45
2022-10-16T05:01:37.859Z,35.45
2022-10-16T05:02:38.088Z,35.45
2022-10-16T05:03:37.777Z,35.77
2022-10-16T05:04:37.783Z,35.29
2022-10-16T05:05:37.782Z,35.45
2022-10-16T05:06:37.815Z,35.45
2022-10-16T05:07:37.727Z,35.29
2022-10-16T05:08:37.915Z,35.61
2022-10-16T05:09:37.715Z,35.29
2022-10-16T05:10:37.874Z,35.13
2022-10-16T05:11:37.681Z,35.61
2022-10-16T05:12:37.786Z,35.13
2022-10-16T05:13:37.643Z,35.45
2022-10-16T05:14:37.930Z,35.45
2022-10-16T05:15:37.629Z,36.42
2022-10-16T05:16:37.703Z,35.93
2022-10-16T05:17:41.154Z,35.77
2022-10-16T05:18:38.578Z,35.61
2022-10-16T05:19:37.562Z,35.61
2022-10-16T05:20:37.829Z,35.45
2022-10-16T05:21:37.677Z,35.93
2022-10-16T05:22:37.581Z,35.13
2022-10-16T05:23:37.503Z,35.45
2022-10-16T05:24:38.972Z,35.77
2022-10-16T05:25:37.485Z,35.45
2022-10-16T05:26:39.108Z,35.45
2022-10-16T05:27:37.489Z,34.97
2022-10-16T05:28:37.520Z,35.29
2022-10-16T05:29:37.423Z,35.29
2022-10-16T05:30:37.407Z,36.09
2022-10-16T05:31:37.393Z,35.29
2022-10-16T05:32:37.798Z,35.45
2022-10-16T05:33:37.418Z,34.97
2022-10-16T05:34:37.393Z,35.77
2022-10-16T05:35:37.339Z,35.29
2022-10-16T05:36:37.407Z,35.45
2022-10-16T05:37:37.312Z,35.93
2022-10-16T05:38:37.588Z,35.61
2022-10-16T05:39:37.297Z,35.45
2022-10-16T05:40:37.305Z,35.45
2022-10-16T05:41:37.250Z,35.29
2022-10-16T05:42:37.976Z,34.64
2022-10-16T05:43:37.245Z,35.93
2022-10-16T05:44:37.418Z,35.29
2022-10-16T05:45:37.248Z,35.13
2022-10-16T05:46:37.176Z,35.45
2022-10-16T05:47:37.167Z,35.61
2022-10-16T05:48:37.224Z,35.29
2022-10-16T05:49:39.179Z,35.45
2022-10-16T05:50:38.704Z,35.61
2022-10-16T05:51:37.108Z,35.29
2022-10-16T05:52:37.472Z,35.45
2022-10-16T05:53:37.133Z,35.45
2022-10-16T05:54:37.124Z,35.29
2022-10-16T05:55:37.062Z,35.77
2022-10-16T05:56:38.633Z,35.93
2022-10-16T05:57:37.081Z,35.45
2022-10-16T05:58:37.093Z,35.45
2022-10-16T05:59:37.013Z,35.29
2022-10-16T06:00:37.772Z,35.77
2022-10-16T06:01:36.959Z,35.45
2022-10-16T06:02:37.292Z,35.77
2022-10-16T06:03:36.960Z,35.45
2022-10-16T06:04:36.918Z,35.93
2022-10-16T06:05:36.911Z,35.61
2022-10-16T06:06:36.978Z,35.93
2022-10-16T06:07:36.882Z,35.45
2022-10-16T06:08:37.329Z,35.77
2022-10-16T06:09:36.859Z,35.29
2022-10-16T06:10:36.888Z,35.29
2022-10-16T06:11:36.841Z,35.61
2022-10-16T06:12:36.956Z,35.45
2022-10-16T06:13:36.807Z,35.61
2022-10-16T06:14:38.232Z,35.61
2022-10-16T06:15:36.775Z,35.77
2022-10-16T06:16:38.227Z,35.45
2022-10-16T06:17:36.755Z,35.45
2022-10-16T06:18:36.853Z,35.61
2022-10-16T06:19:36.740Z,35.45
2022-10-16T06:20:37.010Z,35.61
2022-10-16T06:21:36.685Z,34.80
2022-10-16T06:22:38.250Z,35.45
2022-10-16T06:23:36.749Z,35.45
2022-10-16T06:24:36.821Z,35.45
2022-10-16T06:25:36.627Z,35.45
2022-10-16T06:26:36.846Z,35.61
2022-10-16T06:27:36.614Z,35.61
2022-10-16T06:28:37.765Z,35.29
2022-10-16T06:29:36.577Z,35.45
2022-10-16T06:30:36.696Z,35.45
2022-10-16T06:31:36.540Z,35.13
2022-10-16T06:32:36.851Z,35.45
2022-10-16T06:33:36.521Z,35.45
2022-10-16T06:34:38.485Z,35.29
2022-10-16T06:35:36.495Z,35.45
2022-10-16T06:36:36.675Z,35.29
2022-10-16T06:37:36.555Z,35.61
2022-10-16T06:38:36.858Z,35.29
2022-10-16T06:39:36.430Z,35.45
2022-10-16T06:40:36.569Z,35.61
2022-10-16T06:41:36.400Z,35.29
2022-10-16T06:42:36.501Z,35.13
2022-10-16T06:43:36.388Z,35.45
2022-10-16T06:44:36.786Z,35.45
2022-10-16T06:45:36.351Z,35.29
2022-10-16T06:46:36.506Z,35.61
2022-10-16T06:47:36.330Z,35.61
2022-10-16T06:48:36.413Z,35.61
2022-10-16T06:49:36.300Z,36.58
2022-10-16T06:50:36.492Z,36.42
2022-10-16T06:51:38.016Z,35.29
2022-10-16T06:52:36.267Z,35.29
2022-10-16T06:53:39.867Z,35.45
2022-10-16T06:54:42.282Z,35.13
2022-10-16T06:55:37.276Z,35.29
2022-10-16T06:56:36.837Z,35.45
2022-10-16T06:57:36.234Z,35.45
2022-10-16T06:58:37.660Z,35.93
2022-10-16T06:59:36.185Z,35.93
2022-10-16T07:00:37.212Z,35.45
2022-10-16T07:01:36.185Z,35.29
2022-10-16T07:02:36.402Z,35.93
2022-10-16T07:03:36.098Z,35.29
2022-10-16T07:04:36.117Z,35.45
2022-10-16T07:05:36.072Z,35.13
2022-10-16T07:06:36.559Z,35.77
2022-10-16T07:07:36.068Z,36.74
2022-10-16T07:08:36.358Z,35.29
2022-10-16T07:09:36.087Z,35.29
2022-10-16T07:10:36.216Z,35.13
2022-10-16T07:11:36.036Z,35.45
2022-10-16T07:12:36.174Z,35.29
2022-10-16T07:13:35.979Z,36.90
2022-10-16T07:14:36.315Z,35.45
2022-10-16T07:15:35.932Z,36.09
2022-10-16T07:16:36.901Z,35.45
2022-10-16T07:17:35.903Z,35.45
2022-10-16T07:18:36.711Z,35.93
2022-10-16T07:19:35.926Z,35.45
2022-10-16T07:20:36.205Z,35.45
2022-10-16T07:21:35.895Z,35.45
2022-10-16T07:22:36.927Z,35.61
2022-10-16T07:23:35.816Z,36.09
2022-10-16T07:24:35.929Z,35.77
2022-10-16T07:25:35.843Z,35.93
2022-10-16T07:26:36.843Z,35.77
2022-10-16T07:28:35.878Z,35.45
2022-10-16T07:29:35.743Z,35.45
2022-10-16T07:30:35.853Z,35.13
2022-10-16T07:31:36.044Z,36.58
2022-10-16T07:32:35.966Z,35.61
2022-10-16T07:33:35.694Z,35.61
2022-10-16T07:34:35.909Z,35.45
2022-10-16T07:35:35.641Z,35.93
2022-10-16T07:36:36.534Z,35.77
2022-10-16T07:37:36.018Z,35.61
2022-10-16T07:38:35.865Z,35.29
2022-10-16T07:39:35.599Z,35.77
2022-10-16T07:40:35.721Z,35.29
2022-10-16T07:41:35.578Z,35.29
2022-10-16T07:42:35.828Z,35.13
2022-10-16T07:43:35.595Z,35.29
2022-10-16T07:44:36.600Z,35.45
2022-10-16T07:45:35.527Z,35.29
2022-10-16T07:46:35.957Z,35.45
2022-10-16T07:47:35.493Z,35.45
2022-10-16T07:48:35.794Z,35.13
2022-10-16T07:49:35.532Z,35.45
2022-10-16T07:50:36.095Z,34.64
2022-10-16T07:51:35.435Z,34.64
2022-10-16T07:52:35.651Z,37.71
2022-10-16T07:53:35.397Z,34.16
2022-10-16T07:54:36.119Z,34.48
2022-10-16T07:55:35.426Z,34.32
2022-10-16T07:56:37.645Z,34.48
2022-10-16T07:57:35.442Z,34.48
2022-10-16T07:58:35.547Z,34.32
2022-10-16T07:59:35.328Z,34.64
2022-10-16T08:00:35.539Z,34.80
2022-10-16T08:01:35.369Z,34.48
2022-10-16T08:02:35.786Z,34.80
2022-10-16T08:03:35.290Z,35.13
2022-10-16T08:04:35.468Z,34.32
2022-10-16T08:05:35.223Z,34.32
2022-10-16T08:06:35.622Z,34.16
2022-10-16T08:07:35.263Z,34.48
2022-10-16T08:08:35.562Z,34.32
2022-10-16T08:09:35.375Z,34.32
2022-10-16T08:10:35.239Z,34.32
2022-10-16T08:11:35.146Z,35.45
2022-10-16T08:12:35.489Z,34.48
2022-10-16T08:13:35.147Z,34.32
2022-10-16T08:14:35.949Z,34.32
2022-10-16T08:15:35.127Z,34.97
2022-10-16T08:16:35.332Z,34.48
2022-10-16T08:17:35.072Z,34.80
2022-10-16T08:18:35.477Z,35.77
2022-10-16T08:19:35.064Z,34.64
2022-10-16T08:20:35.343Z,34.64
2022-10-16T08:21:35.032Z,34.64
2022-10-16T08:22:35.360Z,34.48
2022-10-16T08:23:34.996Z,34.32
2022-10-16T08:24:35.393Z,34.32
2022-10-16T08:25:34.984Z,34.48
2022-10-16T08:26:35.361Z,34.16
2022-10-16T08:27:34.936Z,33.68
2022-10-16T08:28:35.845Z,34.80
2022-10-16T08:29:34.890Z,34.32
2022-10-16T08:30:36.077Z,34.32
2022-10-16T08:31:34.903Z,34.32
2022-10-16T08:32:35.076Z,34.32
2022-10-16T08:33:34.848Z,34.64
2022-10-16T08:34:35.851Z,34.64
2022-10-16T08:35:34.802Z,34.48
2022-10-16T08:36:35.755Z,34.48
2022-10-16T08:37:34.819Z,34.00
2022-10-16T08:38:35.653Z,34.48
2022-10-16T08:39:34.778Z,34.16
2022-10-16T08:40:34.830Z,34.48
2022-10-16T08:41:34.730Z,34.32
2022-10-16T08:42:35.713Z,34.32
2022-10-16T08:43:34.720Z,34.32
2022-10-16T08:44:35.200Z,34.48
2022-10-16T08:45:34.673Z,34.16
2022-10-16T08:46:34.828Z,34.32
2022-10-16T08:47:34.636Z,34.64
2022-10-16T08:48:35.201Z,34.48
2022-10-16T08:49:34.683Z,34.32
2022-10-16T08:50:35.498Z,34.32
2022-10-16T08:51:34.576Z,34.16
2022-10-16T08:52:34.734Z,34.32
2022-10-16T08:53:34.570Z,34.32
2022-10-16T08:54:35.840Z,34.48
2022-10-16T08:55:34.717Z,34.32
2022-10-16T08:56:35.494Z,34.32
2022-10-16T08:57:34.509Z,34.32
2022-10-16T08:58:35.104Z,34.00
2022-10-16T08:59:34.488Z,34.80
2022-10-16T09:00:35.078Z,34.16
2022-10-16T09:01:34.482Z,35.13
2022-10-16T09:02:34.636Z,34.32
2022-10-16T09:03:34.407Z,34.16
2022-10-16T09:04:34.850Z,34.32
2022-10-16T09:05:34.391Z,34.32
2022-10-16T09:06:34.688Z,34.16
2022-10-16T09:07:34.402Z,35.13
2022-10-16T09:08:34.468Z,34.64
2022-10-16T09:09:34.349Z,34.32
2022-10-16T09:10:34.709Z,34.16
2022-10-16T09:11:34.308Z,34.16
2022-10-16T09:12:34.752Z,34.48
2022-10-16T09:13:34.308Z,34.48
2022-10-16T09:14:34.501Z,34.32
2022-10-16T09:15:34.249Z,34.48
2022-10-16T09:16:36.018Z,34.48
2022-10-16T09:17:34.211Z,34.32
2022-10-16T09:18:35.166Z,34.16
2022-10-16T09:19:34.219Z,34.16
2022-10-16T09:20:34.296Z,34.32
2022-10-16T09:21:34.164Z,34.64
2022-10-16T09:22:35.381Z,34.48
2022-10-16T09:23:34.140Z,34.48
2022-10-16T09:24:37.041Z,35.93
2022-10-16T09:25:34.138Z,34.48
2022-10-16T09:26:34.962Z,34.48
2022-10-16T09:27:35.031Z,34.32
2022-10-16T09:28:35.058Z,34.48
2022-10-16T09:29:34.064Z,34.48
2022-10-16T09:30:35.047Z,34.48
2022-10-16T09:31:34.069Z,34.32
2022-10-16T09:32:34.201Z,34.64
2022-10-16T09:33:33.989Z,34.48
2022-10-16T09:34:34.316Z,34.16
2022-10-16T09:35:33.981Z,34.32
2022-10-16T09:36:34.244Z,34.32
2022-10-16T09:37:33.966Z,34.48
2022-10-16T09:38:35.084Z,34.48
2022-10-16T09:39:33.913Z,34.48
2022-10-16T09:40:35.296Z,34.32
2022-10-16T09:41:33.889Z,34.16
2022-10-16T09:42:34.857Z,34.16
2022-10-16T09:43:33.898Z,34.16
2022-10-16T09:44:36.587Z,34.48
2022-10-16T09:45:33.828Z,34.32
2022-10-16T09:46:33.927Z,34.32
2022-10-16T09:47:33.799Z,34.48
2022-10-16T09:48:34.904Z,34.48
2022-10-16T09:49:33.812Z,33.84
2022-10-16T09:50:33.918Z,34.16
2022-10-16T09:51:33.747Z,34.32
2022-10-16T09:52:33.819Z,34.16
2022-10-16T09:53:33.740Z,34.32
2022-10-16T09:54:33.968Z,34.32
2022-10-16T09:55:33.725Z,34.32
2022-10-16T09:56:33.861Z,34.32
2022-10-16T09:57:33.704Z,34.16
2022-10-16T09:58:34.855Z,34.32
2022-10-16T09:59:33.631Z,34.32
2022-10-16T10:00:33.961Z,34.48
2022-10-16T10:01:33.794Z,34.48
2022-10-16T10:02:35.584Z,35.13
2022-10-16T10:03:33.599Z,34.32
2022-10-16T10:04:34.294Z,34.16
2022-10-16T10:05:33.553Z,34.32
2022-10-16T10:06:36.461Z,34.16
2022-10-16T10:07:33.605Z,34.16
2022-10-16T10:08:34.016Z,34.32
2022-10-16T10:09:33.505Z,34.16
2022-10-16T10:10:34.251Z,34.16
2022-10-16T10:11:33.473Z,34.16
2022-10-16T10:12:34.366Z,35.29
2022-10-16T10:13:33.465Z,34.16
2022-10-16T10:14:34.259Z,34.16
2022-10-16T10:15:33.406Z,34.00
2022-10-16T10:16:33.598Z,34.16
2022-10-16T10:17:33.407Z,34.16
2022-10-16T10:18:36.508Z,34.00
2022-10-16T10:19:33.391Z,34.00
2022-10-16T10:20:34.134Z,34.16
2022-10-16T10:21:33.324Z,34.32
2022-10-16T10:22:34.405Z,34.16
2022-10-16T10:23:33.292Z,34.32
2022-10-16T10:24:34.698Z,34.16
2022-10-16T10:25:33.305Z,34.00
2022-10-16T10:26:36.488Z,34.32
2022-10-16T10:27:34.249Z,33.84
2022-10-16T10:28:34.457Z,34.16
2022-10-16T10:29:33.221Z,34.16
2022-10-16T10:30:33.447Z,34.16
2022-10-16T10:31:33.222Z,34.16
2022-10-16T10:32:33.441Z,34.16
2022-10-16T10:33:33.173Z,34.00
2022-10-16T10:34:35.170Z,33.84
2022-10-16T10:35:33.122Z,34.00
2022-10-16T10:36:33.606Z,34.16
2022-10-16T10:37:33.260Z,34.16
2022-10-16T10:38:34.800Z,33.84
2022-10-16T10:39:33.073Z,33.84
2022-10-16T10:40:33.188Z,33.84
2022-10-16T10:41:33.082Z,34.00
2022-10-16T10:42:36.171Z,33.68
2022-10-16T10:43:33.094Z,33.84
2022-10-16T10:44:33.170Z,34.00
2022-10-16T10:45:32.988Z,33.84
2022-10-16T10:46:33.116Z,33.35
2022-10-16T10:47:32.981Z,34.00
2022-10-16T10:48:34.150Z,33.84
2022-10-16T10:49:32.967Z,34.32
2022-10-16T10:50:34.231Z,33.84
2022-10-16T10:51:32.904Z,34.00
2022-10-16T10:52:33.685Z,34.32
2022-10-16T10:53:32.868Z,33.84
2022-10-16T10:54:33.451Z,33.84
2022-10-16T10:55:32.892Z,33.84
2022-10-16T10:56:32.967Z,34.32
2022-10-16T10:57:32.963Z,33.84
2022-10-16T10:58:35.863Z,34.00
2022-10-16T10:59:32.794Z,33.84
2022-10-16T11:00:33.816Z,34.00
2022-10-16T11:01:32.883Z,34.00
2022-10-16T11:02:33.689Z,33.68
2022-10-16T11:03:32.740Z,33.84
2022-10-16T11:04:34.013Z,33.84
2022-10-16T11:05:32.708Z,33.84
2022-10-16T11:06:33.145Z,34.00
2022-10-16T11:07:32.882Z,34.32
2022-10-16T11:08:33.826Z,33.84
2022-10-16T11:09:32.656Z,33.84
2022-10-16T11:10:32.802Z,34.00
2022-10-16T11:11:32.635Z,34.32
2022-10-16T11:12:33.723Z,34.32
2022-10-16T11:13:32.638Z,34.00
2022-10-16T11:14:32.916Z,34.00
2022-10-16T11:15:32.566Z,33.68
2022-10-16T11:16:33.362Z,34.97
2022-10-16T11:17:32.546Z,33.84
2022-10-16T11:18:33.569Z,33.68
2022-10-16T11:19:32.542Z,33.84
2022-10-16T11:20:32.735Z,33.68
2022-10-16T11:21:32.478Z,33.68
2022-10-16T11:22:32.542Z,33.52
2022-10-16T11:23:32.460Z,33.19
2022-10-16T11:24:32.566Z,33.84
2022-10-16T11:25:32.459Z,33.84
2022-10-16T11:26:32.519Z,33.84
2022-10-16T11:27:32.568Z,33.84
2022-10-16T11:28:32.630Z,33.84
2022-10-16T11:29:32.379Z,34.00
2022-10-16T11:30:32.597Z,33.84
2022-10-16T11:31:32.381Z,33.35
2022-10-16T11:32:32.446Z,33.68
2022-10-16T11:33:32.354Z,33.84
2022-10-16T11:34:35.515Z,33.84
2022-10-16T11:35:33.292Z,33.68
2022-10-16T11:36:32.752Z,34.00
2022-10-16T11:37:32.663Z,33.35
2022-10-16T11:38:32.422Z,33.52
2022-10-16T11:39:32.226Z,34.00
2022-10-16T11:40:32.314Z,34.32
2022-10-16T11:41:32.212Z,34.48
2022-10-16T11:42:32.304Z,33.52
2022-10-16T11:43:32.363Z,33.52
2022-10-16T11:44:32.230Z,33.84
2022-10-16T11:45:32.148Z,34.00
2022-10-16T11:46:32.573Z,33.35
2022-10-16T11:47:58.841Z,33.68
2022-10-16T11:48:35.039Z,33.68
2022-10-16T11:49:32.102Z,33.68
2022-10-16T11:50:32.498Z,33.68
2022-10-16T11:51:32.086Z,33.35
2022-10-16T11:52:32.220Z,33.35
2022-10-16T11:53:32.083Z,33.35
2022-10-16T11:54:32.520Z,33.35
2022-10-16T11:55:32.134Z,33.19
2022-10-16T11:56:34.950Z,33.68
2022-10-16T11:57:32.467Z,33.35
2022-10-16T11:58:32.236Z,33.52
2022-10-16T11:59:32.004Z,33.68
2022-10-16T12:00:32.262Z,33.52
2022-10-16T12:01:31.985Z,33.52
2022-10-16T12:02:32.263Z,33.35
2022-10-16T12:03:31.985Z,34.32
2022-10-16T12:04:32.110Z,33.35
2022-10-16T12:05:31.869Z,33.35
2022-10-16T12:06:33.139Z,33.35
2022-10-16T12:07:32.459Z,33.19
2022-10-16T12:08:31.888Z,33.68
2022-10-16T12:09:31.823Z,33.52
2022-10-16T12:10:31.895Z,33.68
2022-10-16T12:11:31.798Z,33.52
2022-10-16T12:12:34.482Z,33.03
2022-10-16T12:13:31.777Z,33.68
2022-10-16T12:14:32.061Z,33.68
2022-10-16T12:15:58.841Z,33.52
2022-10-16T12:16:33.588Z,33.68
2022-10-16T12:17:31.830Z,34.00
2022-10-16T12:18:32.016Z,33.68
2022-10-16T12:19:31.699Z,33.35
2022-10-16T12:20:31.777Z,33.35
2022-10-16T12:21:31.647Z,34.16
2022-10-16T12:22:32.310Z,33.19
2022-10-16T12:23:31.673Z,33.84
2022-10-16T12:24:31.856Z,33.35
2022-10-16T12:25:31.611Z,33.35
2022-10-16T12:26:31.608Z,33.35
2022-10-16T12:27:31.590Z,33.35
2022-10-16T12:28:32.018Z,33.19
2022-10-16T12:29:31.537Z,33.19
2022-10-16T12:30:35.182Z,33.52
2022-10-16T12:31:31.498Z,33.35
2022-10-16T12:32:48.103Z,33.35
2022-10-16T12:33:32.577Z,33.68
2022-10-16T12:34:31.497Z,33.35
2022-10-16T12:35:31.682Z,33.52
2022-10-16T12:36:32.069Z,33.68
2022-10-16T12:37:31.450Z,33.19
2022-10-16T12:38:31.646Z,33.19
2022-10-16T12:39:31.392Z,33.52
2022-10-16T12:40:31.949Z,33.35
2022-10-16T12:41:31.373Z,33.35
2022-10-16T12:42:31.849Z,32.71
2022-10-16T12:43:31.338Z,33.19
2022-10-16T12:44:31.560Z,33.52
2022-10-16T12:45:31.417Z,33.52
2022-10-16T12:46:32.264Z,33.68
2022-10-16T12:47:31.282Z,33.35
2022-10-16T12:48:42.379Z,33.35
2022-10-16T12:49:32.266Z,33.35
2022-10-16T12:50:31.317Z,33.52
2022-10-16T12:51:31.228Z,33.19
2022-10-16T12:52:31.581Z,33.84
2022-10-16T12:53:31.198Z,33.35